Click on the image to enlargeKlik op de webcam foto voor een grotere versie
Or click here
for the webcam videoo


Visit our other website:Website of another weatherstation



No particular awareness of the weather is required.    There are no Weather-warnings

Nearby Airports - METAR Reports

   
EBBR - Vaartkom-Leuven
Updated: 12-11-2018 20:50
Clear    Wind: South 15 km/h
Clear
Wind: Wind: South 15 km/h
Temperature: 9°C
Windchill: 7°C
Dew Point: 8°C
Humidity: 94%
Barometer: 1017 hPa
Visibility: More than 10 km
Cloud details: Clear
EBBR 121950Z 19008KT CAVOK 09/08 Q1017 NOSIG
EBAW - Antwerp
Updated: 12-11-2018 20:50
Partly Cloudy    Wind: South 13 km/h
Partly Cloudy
Wind: Wind: South 13 km/h
Temperature: 10°C
Windchill: 8°C
Dew Point: 8°C
Humidity: 88%
Barometer: 1017 hPa
Clouds: Partly Cloudy
Visibility: 8 km
Cloud details: Partly Cloudy
EBAW 121950Z 19007KT 8000 NSC 10/08 Q1017 NOSIG
EBLG - Li├Ęge
Updated: 12-11-2018 20:50
Clear    Wind: South 9 km/h
Clear
Wind: Wind: South 9 km/h
Temperature: 9°C
Windchill: 8°C
Dew Point: 8°C
Humidity: 94%
Barometer: 1018 hPa
Visibility: More than 10 km
Cloud details: Clear
EBLG 121950Z 18005KT 120V210 CAVOK 09/08 Q1018 NOSIG
EBCV - Mons/Bergen
Updated: 12-11-2018 20:25
Mostly Cloudy    Wind: South 13 km/h
Mostly Cloudy
Wind: Wind: South 13 km/h
Temperature: 9°C
Windchill: 7°C
Dew Point: 8°C
Humidity: 94%
Barometer: 1018 hPa
Clouds: Mostly Cloudy
Visibility: More than 10 km
Cloud details: Mostly Cloudy 4876.8 m
EBCV 121925Z AUTO 18007KT 9999 BKN160/// 09/08 Q1018 BLU
EHBK - Maastricht
Updated: 12-11-2018 20:55
Partly Cloudy    Wind: SW 13 km/h
Partly Cloudy
Wind: Wind: SW 13 km/h
Temperature: 9°C
Windchill: 7°C
Dew Point: 8°C
Humidity: 94%
Barometer: 1018 hPa
Clouds: Partly Cloudy
Visibility: More than 10 km
Cloud details: Partly Cloudy
EHBK 121955Z AUTO 22007KT 9999 NSC 09/08 Q1018 TEMPO 7000
ELLX - Luxemburg
Updated: 12-11-2018 20:50
Light Rain, Mostly Cloudy    Wind: West 11 km/h
Light Rain, Mostly Cloudy
Wind: Wind: West 11 km/h
Temperature: 10°C
Windchill: 8°C
Dew Point: 9°C
Humidity: 94%
Barometer: 1019 hPa
Clouds: Mostly Cloudy
Visibility: More than 10 km
Cloud details: Few Clouds 304.8 m,
Mostly Cloudy 457.2 m
ELLX 121950Z 26006KT 9999 -RA FEW010 BKN015 10/09 Q1019 NOSIG
EBOS - Oostende
Updated: 12-11-2018 20:50
Few Clouds    Wind: South 20 km/h
Few Clouds
Wind: Wind: South 20 km/h
Temperature: 9°C
Windchill: 6°C
Dew Point: 7°C
Humidity: 87%
Barometer: 1016 hPa
Clouds: Few Clouds
Visibility: More than 10 km
Cloud details: Few Clouds 914.4 m
EBOS 121950Z 18011KT 9999 FEW030 09/07 Q1016 NOSIG
  

Script developed by  Saratoga-weather.org Adapted for the template by  Weerstation Leuven

You find our weather info also at:

UK Metoffice

WeatherCloud

European Weather Network

Weather Underground

Benelux Weather Network

AWEKAS

WeatherlinkIP

Citizen Weather Observer Program (CWOP)

HAMweather, WeatherForYou, PWS Weather

Equipment we use:

Weather-station
Davis VUE

Weather-program
Meteobridge

Weather-server
D-Link DIR-505

Provider
Robohost

Davis VUE

Meteobridge

D-Link DIR-505

Robohost